sensor_id;sensor_type;location;lat;lon;timestamp;P1;durP1;ratioP1;P2;durP2;ratioP2
35324;SDS011;35135;47.510;19.036;2023-07-20T00:01:57;7.75;;;3.40;;
35324;SDS011;35135;47.510;19.036;2023-07-20T00:04:22;4.55;;;2.80;;
35324;SDS011;35135;47.510;19.036;2023-07-20T00:06:48;5.18;;;2.83;;
35324;SDS011;35135;47.510;19.036;2023-07-20T00:09:14;5.50;;;3.10;;
35324;SDS011;35135;47.510;19.036;2023-07-20T00:11:39;3.95;;;2.95;;
35324;SDS011;35135;47.510;19.036;2023-07-20T00:14:05;6.10;;;3.50;;
35324;SDS011;35135;47.510;19.036;2023-07-20T00:16:31;4.22;;;3.00;;
35324;SDS011;35135;47.510;19.036;2023-07-20T00:18:57;6.18;;;3.50;;
35324;SDS011;35135;47.510;19.036;2023-07-20T00:21:23;6.90;;;3.58;;
35324;SDS011;35135;47.510;19.036;2023-07-20T00:23:48;4.75;;;3.00;;
35324;SDS011;35135;47.510;19.036;2023-07-20T00:26:14;5.20;;;3.17;;
35324;SDS011;35135;47.510;19.036;2023-07-20T00:28:39;4.97;;;3.13;;
35324;SDS011;35135;47.510;19.036;2023-07-20T00:31:05;4.78;;;3.03;;
35324;SDS011;35135;47.510;19.036;2023-07-20T00:33:31;4.57;;;3.10;;
35324;SDS011;35135;47.510;19.036;2023-07-20T00:35:56;6.13;;;3.40;;
35324;SDS011;35135;47.510;19.036;2023-07-20T00:38:22;5.28;;;2.95;;
35324;SDS011;35135;47.510;19.036;2023-07-20T00:40:48;6.95;;;3.35;;
35324;SDS011;35135;47.510;19.036;2023-07-20T00:43:14;6.43;;;3.25;;
35324;SDS011;35135;47.510;19.036;2023-07-20T00:45:40;8.23;;;3.65;;
35324;SDS011;35135;47.510;19.036;2023-07-20T00:48:06;5.93;;;3.20;;
35324;SDS011;35135;47.510;19.036;2023-07-20T00:50:32;5.65;;;3.10;;
35324;SDS011;35135;47.510;19.036;2023-07-20T00:52:59;5.03;;;3.00;;
35324;SDS011;35135;47.510;19.036;2023-07-20T00:55:25;4.80;;;3.47;;
35324;SDS011;35135;47.510;19.036;2023-07-20T00:57:53;6.90;;;3.20;;
35324;SDS011;35135;47.510;19.036;2023-07-20T01:00:19;5.88;;;3.10;;
35324;SDS011;35135;47.510;19.036;2023-07-20T01:02:45;6.78;;;3.10;;
35324;SDS011;35135;47.510;19.036;2023-07-20T01:05:12;6.40;;;3.17;;
35324;SDS011;35135;47.510;19.036;2023-07-20T01:08:01;5.18;;;2.88;;
35324;SDS011;35135;47.510;19.036;2023-07-20T01:11:06;3.92;;;2.53;;
35324;SDS011;35135;47.510;19.036;2023-07-20T01:13:29;7.53;;;3.40;;
35324;SDS011;35135;47.510;19.036;2023-07-20T01:16:00;5.88;;;3.35;;
35324;SDS011;35135;47.510;19.036;2023-07-20T01:20:53;5.53;;;3.33;;
35324;SDS011;35135;47.510;19.036;2023-07-20T01:26:17;5.05;;;3.10;;
35324;SDS011;35135;47.510;19.036;2023-07-20T01:31:34;4.90;;;3.30;;
35324;SDS011;35135;47.510;19.036;2023-07-20T01:34:02;5.43;;;3.15;;
35324;SDS011;35135;47.510;19.036;2023-07-20T01:36:31;4.18;;;2.70;;
35324;SDS011;35135;47.510;19.036;2023-07-20T01:39:00;5.57;;;3.20;;
35324;SDS011;35135;47.510;19.036;2023-07-20T01:41:27;6.38;;;3.17;;
35324;SDS011;35135;47.510;19.036;2023-07-20T01:43:53;5.10;;;2.97;;
35324;SDS011;35135;47.510;19.036;2023-07-20T01:46:22;5.10;;;3.00;;
35324;SDS011;35135;47.510;19.036;2023-07-20T01:48:47;4.47;;;3.03;;
35324;SDS011;35135;47.510;19.036;2023-07-20T01:51:13;6.15;;;2.97;;
35324;SDS011;35135;47.510;19.036;2023-07-20T01:53:39;6.57;;;3.20;;
35324;SDS011;35135;47.510;19.036;2023-07-20T01:56:05;6.88;;;3.50;;
35324;SDS011;35135;47.510;19.036;2023-07-20T01:58:30;5.70;;;3.00;;
35324;SDS011;35135;47.510;19.036;2023-07-20T02:00:56;6.63;;;3.50;;
35324;SDS011;35135;47.510;19.036;2023-07-20T02:03:21;6.50;;;3.10;;
35324;SDS011;35135;47.510;19.036;2023-07-20T02:05:50;4.88;;;3.17;;
35324;SDS011;35135;47.510;19.036;2023-07-20T02:08:16;5.70;;;2.85;;
35324;SDS011;35135;47.510;19.036;2023-07-20T02:10:44;4.82;;;3.15;;
35324;SDS011;35135;47.510;19.036;2023-07-20T02:13:11;5.15;;;3.17;;
35324;SDS011;35135;47.510;19.036;2023-07-20T02:15:37;6.05;;;2.83;;
35324;SDS011;35135;47.510;19.036;2023-07-20T02:18:03;4.78;;;3.10;;
35324;SDS011;35135;47.510;19.036;2023-07-20T02:20:28;5.68;;;3.40;;
35324;SDS011;35135;47.510;19.036;2023-07-20T02:22:54;5.18;;;2.85;;
35324;SDS011;35135;47.510;19.036;2023-07-20T02:25:20;7.20;;;3.38;;
35324;SDS011;35135;47.510;19.036;2023-07-20T02:27:46;9.80;;;3.70;;
35324;SDS011;35135;47.510;19.036;2023-07-20T02:30:12;6.20;;;3.40;;
35324;SDS011;35135;47.510;19.036;2023-07-20T02:32:38;4.72;;;3.25;;
35324;SDS011;35135;47.510;19.036;2023-07-20T02:35:04;5.65;;;3.50;;
35324;SDS011;35135;47.510;19.036;2023-07-20T02:37:31;6.30;;;3.28;;
35324;SDS011;35135;47.510;19.036;2023-07-20T02:39:57;6.00;;;3.00;;
35324;SDS011;35135;47.510;19.036;2023-07-20T02:42:23;6.30;;;3.85;;
35324;SDS011;35135;47.510;19.036;2023-07-20T02:44:50;5.80;;;3.63;;
35324;SDS011;35135;47.510;19.036;2023-07-20T02:47:16;5.05;;;3.53;;
35324;SDS011;35135;47.510;19.036;2023-07-20T02:49:42;5.63;;;3.63;;
35324;SDS011;35135;47.510;19.036;2023-07-20T02:52:08;4.20;;;3.33;;
35324;SDS011;35135;47.510;19.036;2023-07-20T02:54:34;7.82;;;3.72;;
35324;SDS011;35135;47.510;19.036;2023-07-20T02:57:00;6.25;;;3.47;;
35324;SDS011;35135;47.510;19.036;2023-07-20T02:59:26;6.80;;;3.53;;
35324;SDS011;35135;47.510;19.036;2023-07-20T03:01:52;6.97;;;3.20;;
35324;SDS011;35135;47.510;19.036;2023-07-20T03:04:19;5.30;;;3.42;;
35324;SDS011;35135;47.510;19.036;2023-07-20T03:06:44;5.22;;;3.30;;
35324;SDS011;35135;47.510;19.036;2023-07-20T03:09:10;5.95;;;3.20;;
35324;SDS011;35135;47.510;19.036;2023-07-20T03:11:36;5.97;;;3.58;;
35324;SDS011;35135;47.510;19.036;2023-07-20T03:14:02;5.30;;;3.38;;
35324;SDS011;35135;47.510;19.036;2023-07-20T03:16:27;5.45;;;3.50;;
35324;SDS011;35135;47.510;19.036;2023-07-20T03:18:53;5.80;;;3.20;;
35324;SDS011;35135;47.510;19.036;2023-07-20T03:21:19;4.18;;;3.17;;
35324;SDS011;35135;47.510;19.036;2023-07-20T03:23:44;6.53;;;3.60;;
35324;SDS011;35135;47.510;19.036;2023-07-20T03:26:11;6.70;;;3.20;;
35324;SDS011;35135;47.510;19.036;2023-07-20T03:28:37;7.47;;;3.45;;
35324;SDS011;35135;47.510;19.036;2023-07-20T03:31:03;7.00;;;3.20;;
35324;SDS011;35135;47.510;19.036;2023-07-20T03:33:29;6.25;;;3.47;;
35324;SDS011;35135;47.510;19.036;2023-07-20T03:35:56;4.65;;;3.53;;
35324;SDS011;35135;47.510;19.036;2023-07-20T03:38:24;5.85;;;3.65;;
35324;SDS011;35135;47.510;19.036;2023-07-20T03:40:51;5.90;;;3.65;;
35324;SDS011;35135;47.510;19.036;2023-07-20T03:43:21;7.05;;;3.58;;
35324;SDS011;35135;47.510;19.036;2023-07-20T03:45:47;6.65;;;3.65;;
35324;SDS011;35135;47.510;19.036;2023-07-20T03:48:17;7.55;;;3.47;;
35324;SDS011;35135;47.510;19.036;2023-07-20T03:50:44;9.25;;;3.75;;
35324;SDS011;35135;47.510;19.036;2023-07-20T03:53:13;5.40;;;2.78;;
35324;SDS011;35135;47.510;19.036;2023-07-20T03:55:40;5.85;;;3.30;;
35324;SDS011;35135;47.510;19.036;2023-07-20T03:58:07;7.18;;;3.72;;
35324;SDS011;35135;47.510;19.036;2023-07-20T04:00:33;6.88;;;3.63;;
35324;SDS011;35135;47.510;19.036;2023-07-20T04:02:59;5.10;;;3.60;;
35324;SDS011;35135;47.510;19.036;2023-07-20T04:05:25;7.65;;;3.40;;
35324;SDS011;35135;47.510;19.036;2023-07-20T04:07:51;5.45;;;3.60;;
35324;SDS011;35135;47.510;19.036;2023-07-20T04:10:18;6.15;;;3.13;;
35324;SDS011;35135;47.510;19.036;2023-07-20T04:12:44;5.38;;;3.15;;
35324;SDS011;35135;47.510;19.036;2023-07-20T04:15:12;8.57;;;3.80;;
35324;SDS011;35135;47.510;19.036;2023-07-20T04:17:38;5.40;;;3.03;;
35324;SDS011;35135;47.510;19.036;2023-07-20T04:20:04;6.22;;;3.47;;
35324;SDS011;35135;47.510;19.036;2023-07-20T04:22:31;6.03;;;3.80;;
35324;SDS011;35135;47.510;19.036;2023-07-20T04:24:56;6.80;;;3.45;;
35324;SDS011;35135;47.510;19.036;2023-07-20T04:27:22;5.63;;;3.10;;
35324;SDS011;35135;47.510;19.036;2023-07-20T04:29:48;5.57;;;3.50;;
35324;SDS011;35135;47.510;19.036;2023-07-20T04:32:13;5.60;;;3.42;;
35324;SDS011;35135;47.510;19.036;2023-07-20T04:34:39;5.03;;;3.22;;
35324;SDS011;35135;47.510;19.036;2023-07-20T04:37:05;7.07;;;3.75;;
35324;SDS011;35135;47.510;19.036;2023-07-20T04:39:30;5.70;;;3.38;;
35324;SDS011;35135;47.510;19.036;2023-07-20T04:41:57;5.03;;;3.00;;
35324;SDS011;35135;47.510;19.036;2023-07-20T04:44:22;5.75;;;3.30;;
35324;SDS011;35135;47.510;19.036;2023-07-20T04:46:48;5.50;;;3.33;;
35324;SDS011;35135;47.510;19.036;2023-07-20T04:49:14;5.03;;;3.47;;
35324;SDS011;35135;47.510;19.036;2023-07-20T04:51:40;3.53;;;3.10;;
35324;SDS011;35135;47.510;19.036;2023-07-20T04:54:05;6.63;;;3.35;;
35324;SDS011;35135;47.510;19.036;2023-07-20T04:56:31;4.38;;;3.22;;
35324;SDS011;35135;47.510;19.036;2023-07-20T04:58:57;3.55;;;2.92;;
35324;SDS011;35135;47.510;19.036;2023-07-20T05:01:23;5.55;;;3.40;;
35324;SDS011;35135;47.510;19.036;2023-07-20T05:03:48;3.45;;;2.97;;
35324;SDS011;35135;47.510;19.036;2023-07-20T05:06:14;5.13;;;3.20;;
35324;SDS011;35135;47.510;19.036;2023-07-20T05:08:40;4.57;;;3.33;;
35324;SDS011;35135;47.510;19.036;2023-07-20T05:11:06;3.25;;;2.92;;
35324;SDS011;35135;47.510;19.036;2023-07-20T05:13:32;3.72;;;2.90;;
35324;SDS011;35135;47.510;19.036;2023-07-20T05:15:58;4.45;;;3.42;;
35324;SDS011;35135;47.510;19.036;2023-07-20T05:18:24;4.65;;;3.15;;
35324;SDS011;35135;47.510;19.036;2023-07-20T05:20:50;4.03;;;2.90;;
35324;SDS011;35135;47.510;19.036;2023-07-20T05:23:17;3.97;;;3.17;;
35324;SDS011;35135;47.510;19.036;2023-07-20T05:25:44;4.60;;;3.55;;
35324;SDS011;35135;47.510;19.036;2023-07-20T05:28:09;5.85;;;3.40;;
35324;SDS011;35135;47.510;19.036;2023-07-20T05:30:35;4.88;;;3.40;;
35324;SDS011;35135;47.510;19.036;2023-07-20T05:33:01;5.50;;;3.50;;
35324;SDS011;35135;47.510;19.036;2023-07-20T05:35:26;4.60;;;3.25;;
35324;SDS011;35135;47.510;19.036;2023-07-20T05:37:52;4.95;;;3.40;;
35324;SDS011;35135;47.510;19.036;2023-07-20T05:40:18;6.03;;;4.50;;
35324;SDS011;35135;47.510;19.036;2023-07-20T05:42:47;6.63;;;4.30;;
35324;SDS011;35135;47.510;19.036;2023-07-20T05:45:16;5.25;;;3.75;;
35324;SDS011;35135;47.510;19.036;2023-07-20T05:47:42;7.20;;;4.32;;
35324;SDS011;35135;47.510;19.036;2023-07-20T05:50:08;4.55;;;3.42;;
35324;SDS011;35135;47.510;19.036;2023-07-20T05:52:35;8.10;;;4.10;;
35324;SDS011;35135;47.510;19.036;2023-07-20T05:55:00;5.72;;;3.90;;
35324;SDS011;35135;47.510;19.036;2023-07-20T05:57:26;7.88;;;3.90;;
35324;SDS011;35135;47.510;19.036;2023-07-20T05:59:52;4.55;;;3.80;;
35324;SDS011;35135;47.510;19.036;2023-07-20T06:02:18;9.57;;;3.85;;
35324;SDS011;35135;47.510;19.036;2023-07-20T06:04:43;10.80;;;4.70;;
35324;SDS011;35135;47.510;19.036;2023-07-20T06:07:09;5.03;;;3.58;;
35324;SDS011;35135;47.510;19.036;2023-07-20T06:09:35;5.00;;;3.90;;
35324;SDS011;35135;47.510;19.036;2023-07-20T06:12:01;8.20;;;3.80;;
35324;SDS011;35135;47.510;19.036;2023-07-20T06:14:26;6.47;;;3.60;;
35324;SDS011;35135;47.510;19.036;2023-07-20T06:16:52;7.72;;;4.30;;
35324;SDS011;35135;47.510;19.036;2023-07-20T06:19:18;5.63;;;3.88;;
35324;SDS011;35135;47.510;19.036;2023-07-20T06:21:43;8.45;;;3.40;;
35324;SDS011;35135;47.510;19.036;2023-07-20T06:24:09;4.70;;;3.70;;
35324;SDS011;35135;47.510;19.036;2023-07-20T06:26:35;7.05;;;3.97;;
35324;SDS011;35135;47.510;19.036;2023-07-20T06:29:07;5.88;;;3.53;;
35324;SDS011;35135;47.510;19.036;2023-07-20T06:31:34;7.13;;;3.75;;
35324;SDS011;35135;47.510;19.036;2023-07-20T06:34:00;4.85;;;3.55;;
35324;SDS011;35135;47.510;19.036;2023-07-20T06:36:27;7.15;;;3.28;;
35324;SDS011;35135;47.510;19.036;2023-07-20T06:38:53;5.90;;;3.25;;
35324;SDS011;35135;47.510;19.036;2023-07-20T06:41:19;5.45;;;3.85;;
35324;SDS011;35135;47.510;19.036;2023-07-20T06:43:45;5.47;;;3.83;;
35324;SDS011;35135;47.510;19.036;2023-07-20T06:46:11;5.13;;;3.60;;
35324;SDS011;35135;47.510;19.036;2023-07-20T06:48:36;5.03;;;3.45;;
35324;SDS011;35135;47.510;19.036;2023-07-20T06:51:02;5.63;;;4.05;;
35324;SDS011;35135;47.510;19.036;2023-07-20T06:53:28;6.65;;;3.33;;
35324;SDS011;35135;47.510;19.036;2023-07-20T06:55:54;5.80;;;3.58;;
35324;SDS011;35135;47.510;19.036;2023-07-20T06:58:22;5.88;;;3.63;;
35324;SDS011;35135;47.510;19.036;2023-07-20T07:00:49;6.97;;;3.60;;
35324;SDS011;35135;47.510;19.036;2023-07-20T07:03:14;6.85;;;3.53;;
35324;SDS011;35135;47.510;19.036;2023-07-20T07:05:40;5.50;;;3.33;;
35324;SDS011;35135;47.510;19.036;2023-07-20T07:08:06;5.03;;;3.38;;
35324;SDS011;35135;47.510;19.036;2023-07-20T07:10:32;5.13;;;3.25;;
35324;SDS011;35135;47.510;19.036;2023-07-20T07:13:00;6.35;;;3.53;;
35324;SDS011;35135;47.510;19.036;2023-07-20T07:15:26;6.53;;;4.20;;
35324;SDS011;35135;47.510;19.036;2023-07-20T07:17:52;4.38;;;3.25;;
35324;SDS011;35135;47.510;19.036;2023-07-20T07:20:18;6.63;;;3.38;;
35324;SDS011;35135;47.510;19.036;2023-07-20T07:22:44;4.53;;;3.45;;
35324;SDS011;35135;47.510;19.036;2023-07-20T07:25:10;4.63;;;3.08;;
35324;SDS011;35135;47.510;19.036;2023-07-20T07:27:36;4.38;;;3.40;;
35324;SDS011;35135;47.510;19.036;2023-07-20T07:30:02;4.65;;;3.20;;
35324;SDS011;35135;47.510;19.036;2023-07-20T07:32:28;4.72;;;3.15;;
35324;SDS011;35135;47.510;19.036;2023-07-20T07:34:54;3.97;;;2.85;;
35324;SDS011;35135;47.510;19.036;2023-07-20T07:37:20;5.10;;;3.38;;
35324;SDS011;35135;47.510;19.036;2023-07-20T07:39:46;4.20;;;2.97;;
35324;SDS011;35135;47.510;19.036;2023-07-20T07:42:12;4.93;;;3.42;;
35324;SDS011;35135;47.510;19.036;2023-07-20T07:44:38;3.83;;;2.88;;
35324;SDS011;35135;47.510;19.036;2023-07-20T07:47:04;4.07;;;3.22;;
35324;SDS011;35135;47.510;19.036;2023-07-20T07:49:30;4.65;;;2.92;;
35324;SDS011;35135;47.510;19.036;2023-07-20T07:51:56;6.35;;;3.35;;
35324;SDS011;35135;47.510;19.036;2023-07-20T07:54:22;3.95;;;3.10;;
35324;SDS011;35135;47.510;19.036;2023-07-20T07:56:48;4.95;;;2.80;;
35324;SDS011;35135;47.510;19.036;2023-07-20T07:59:14;5.45;;;3.25;;
35324;SDS011;35135;47.510;19.036;2023-07-20T08:01:39;3.50;;;3.03;;
35324;SDS011;35135;47.510;19.036;2023-07-20T08:04:05;9.60;;;3.65;;
35324;SDS011;35135;47.510;19.036;2023-07-20T08:06:31;3.47;;;2.90;;
35324;SDS011;35135;47.510;19.036;2023-07-20T08:08:57;4.60;;;3.08;;
35324;SDS011;35135;47.510;19.036;2023-07-20T08:11:23;4.05;;;3.05;;
35324;SDS011;35135;47.510;19.036;2023-07-20T08:13:49;4.03;;;3.10;;
35324;SDS011;35135;47.510;19.036;2023-07-20T08:16:14;5.50;;;2.97;;
35324;SDS011;35135;47.510;19.036;2023-07-20T08:18:40;6.30;;;3.05;;
35324;SDS011;35135;47.510;19.036;2023-07-20T08:21:06;3.72;;;2.65;;
35324;SDS011;35135;47.510;19.036;2023-07-20T08:23:32;3.55;;;2.83;;
35324;SDS011;35135;47.510;19.036;2023-07-20T08:25:57;6.80;;;3.22;;
35324;SDS011;35135;47.510;19.036;2023-07-20T08:28:23;5.72;;;3.40;;
35324;SDS011;35135;47.510;19.036;2023-07-20T08:30:49;4.82;;;2.70;;
35324;SDS011;35135;47.510;19.036;2023-07-20T08:33:18;5.05;;;2.90;;
35324;SDS011;35135;47.510;19.036;2023-07-20T08:35:48;6.50;;;3.60;;
35324;SDS011;35135;47.510;19.036;2023-07-20T08:38:14;5.25;;;2.85;;
35324;SDS011;35135;47.510;19.036;2023-07-20T08:40:44;4.75;;;3.00;;
35324;SDS011;35135;47.510;19.036;2023-07-20T08:43:11;5.33;;;3.23;;
35324;SDS011;35135;47.510;19.036;2023-07-20T08:45:38;4.32;;;3.13;;
35324;SDS011;35135;47.510;19.036;2023-07-20T08:48:08;6.15;;;3.10;;
35324;SDS011;35135;47.510;19.036;2023-07-20T08:50:34;3.60;;;3.13;;
35324;SDS011;35135;47.510;19.036;2023-07-20T08:53:01;4.03;;;3.08;;
35324;SDS011;35135;47.510;19.036;2023-07-20T08:55:28;4.55;;;3.28;;
35324;SDS011;35135;47.510;19.036;2023-07-20T08:57:55;5.95;;;3.03;;
35324;SDS011;35135;47.510;19.036;2023-07-20T09:00:22;4.70;;;2.60;;
35324;SDS011;35135;47.510;19.036;2023-07-20T09:02:49;5.47;;;2.92;;
35324;SDS011;35135;47.510;19.036;2023-07-20T09:05:17;4.43;;;2.67;;
35324;SDS011;35135;47.510;19.036;2023-07-20T09:07:43;3.58;;;2.45;;
35324;SDS011;35135;47.510;19.036;2023-07-20T09:10:09;5.72;;;2.65;;
35324;SDS011;35135;47.510;19.036;2023-07-20T09:12:38;5.43;;;2.80;;
35324;SDS011;35135;47.510;19.036;2023-07-20T09:15:05;3.38;;;2.45;;
35324;SDS011;35135;47.510;19.036;2023-07-20T09:17:32;5.07;;;2.70;;
35324;SDS011;35135;47.510;19.036;2023-07-20T09:19:58;3.80;;;2.38;;
35324;SDS011;35135;47.510;19.036;2023-07-20T09:22:30;5.70;;;2.75;;
35324;SDS011;35135;47.510;19.036;2023-07-20T09:24:56;5.43;;;2.58;;
35324;SDS011;35135;47.510;19.036;2023-07-20T09:27:29;4.07;;;2.83;;
35324;SDS011;35135;47.510;19.036;2023-07-20T09:30:02;6.85;;;2.78;;
35324;SDS011;35135;47.510;19.036;2023-07-20T09:32:29;5.65;;;2.72;;
35324;SDS011;35135;47.510;19.036;2023-07-20T09:34:55;3.75;;;2.53;;
35324;SDS011;35135;47.510;19.036;2023-07-20T09:37:21;5.05;;;2.40;;
35324;SDS011;35135;47.510;19.036;2023-07-20T09:39:47;3.83;;;2.63;;
35324;SDS011;35135;47.510;19.036;2023-07-20T09:42:14;4.15;;;2.53;;
35324;SDS011;35135;47.510;19.036;2023-07-20T09:44:42;5.18;;;2.65;;
35324;SDS011;35135;47.510;19.036;2023-07-20T09:47:09;5.53;;;2.60;;
35324;SDS011;35135;47.510;19.036;2023-07-20T09:49:40;3.67;;;2.35;;
35324;SDS011;35135;47.510;19.036;2023-07-20T09:52:08;4.00;;;2.47;;
35324;SDS011;35135;47.510;19.036;2023-07-20T09:54:34;5.32;;;2.70;;
35324;SDS011;35135;47.510;19.036;2023-07-20T09:57:04;3.60;;;2.50;;
35324;SDS011;35135;47.510;19.036;2023-07-20T09:59:34;5.53;;;2.47;;
35324;SDS011;35135;47.510;19.036;2023-07-20T10:02:00;3.80;;;2.50;;
35324;SDS011;35135;47.510;19.036;2023-07-20T10:04:29;3.13;;;2.40;;
35324;SDS011;35135;47.510;19.036;2023-07-20T10:06:57;3.75;;;2.35;;
35324;SDS011;35135;47.510;19.036;2023-07-20T10:09:25;4.10;;;2.75;;
35324;SDS011;35135;47.510;19.036;2023-07-20T10:11:52;5.05;;;2.60;;
35324;SDS011;35135;47.510;19.036;2023-07-20T10:14:22;4.10;;;2.88;;
35324;SDS011;35135;47.510;19.036;2023-07-20T10:16:51;2.85;;;2.50;;
35324;SDS011;35135;47.510;19.036;2023-07-20T10:19:24;3.72;;;2.85;;
35324;SDS011;35135;47.510;19.036;2023-07-20T10:22:07;3.22;;;2.70;;
35324;SDS011;35135;47.510;19.036;2023-07-20T10:24:49;5.43;;;2.45;;
35324;SDS011;35135;47.510;19.036;2023-07-20T10:27:18;7.25;;;2.85;;
35324;SDS011;35135;47.510;19.036;2023-07-20T10:29:46;4.03;;;2.40;;
35324;SDS011;35135;47.510;19.036;2023-07-20T10:32:13;4.20;;;2.35;;
35324;SDS011;35135;47.510;19.036;2023-07-20T10:34:39;5.47;;;2.70;;
35324;SDS011;35135;47.510;19.036;2023-07-20T10:37:04;7.13;;;2.35;;
35324;SDS011;35135;47.510;19.036;2023-07-20T10:39:31;3.92;;;2.47;;
35324;SDS011;35135;47.510;19.036;2023-07-20T10:44:26;8.45;;;2.53;;
35324;SDS011;35135;47.510;19.036;2023-07-20T10:46:52;4.22;;;2.45;;
35324;SDS011;35135;47.510;19.036;2023-07-20T10:49:25;3.83;;;2.53;;
35324;SDS011;35135;47.510;19.036;2023-07-20T10:51:58;4.47;;;2.92;;
35324;SDS011;35135;47.510;19.036;2023-07-20T10:56:50;4.60;;;2.15;;
35324;SDS011;35135;47.510;19.036;2023-07-20T11:04:16;6.13;;;1.80;;
35324;SDS011;35135;47.510;19.036;2023-07-20T11:06:45;5.20;;;2.35;;
35324;SDS011;35135;47.510;19.036;2023-07-20T11:09:22;3.67;;;2.30;;
35324;SDS011;35135;47.510;19.036;2023-07-20T11:11:50;4.75;;;2.17;;
35324;SDS011;35135;47.510;19.036;2023-07-20T11:14:42;3.30;;;2.50;;
35324;SDS011;35135;47.510;19.036;2023-07-20T11:17:22;6.47;;;2.30;;
35324;SDS011;35135;47.510;19.036;2023-07-20T11:19:58;3.05;;;1.75;;
35324;SDS011;35135;47.510;19.036;2023-07-20T11:22:26;5.60;;;2.65;;
35324;SDS011;35135;47.510;19.036;2023-07-20T11:24:54;4.13;;;2.00;;
35324;SDS011;35135;47.510;19.036;2023-07-20T11:27:21;3.53;;;2.35;;
35324;SDS011;35135;47.510;19.036;2023-07-20T11:29:47;5.00;;;2.20;;
35324;SDS011;35135;47.510;19.036;2023-07-20T11:32:19;3.45;;;2.20;;
35324;SDS011;35135;47.510;19.036;2023-07-20T11:34:49;4.50;;;2.17;;
35324;SDS011;35135;47.510;19.036;2023-07-20T11:37:16;3.80;;;2.13;;
35324;SDS011;35135;47.510;19.036;2023-07-20T11:39:43;5.45;;;2.47;;
35324;SDS011;35135;47.510;19.036;2023-07-20T11:42:09;2.97;;;2.20;;
35324;SDS011;35135;47.510;19.036;2023-07-20T11:44:35;3.47;;;2.33;;
35324;SDS011;35135;47.510;19.036;2023-07-20T11:47:04;4.75;;;2.25;;
35324;SDS011;35135;47.510;19.036;2023-07-20T11:49:35;3.42;;;1.80;;
35324;SDS011;35135;47.510;19.036;2023-07-20T11:52:07;3.95;;;2.33;;
35324;SDS011;35135;47.510;19.036;2023-07-20T11:54:39;4.15;;;2.30;;
35324;SDS011;35135;47.510;19.036;2023-07-20T11:57:05;3.40;;;2.20;;
35324;SDS011;35135;47.510;19.036;2023-07-20T11:59:31;3.33;;;2.08;;
35324;SDS011;35135;47.510;19.036;2023-07-20T12:02:00;4.22;;;1.92;;
35324;SDS011;35135;47.510;19.036;2023-07-20T12:04:28;5.85;;;2.42;;
35324;SDS011;35135;47.510;19.036;2023-07-20T12:06:54;5.00;;;2.22;;
35324;SDS011;35135;47.510;19.036;2023-07-20T12:09:23;2.50;;;2.03;;
35324;SDS011;35135;47.510;19.036;2023-07-20T12:11:49;4.50;;;2.13;;
35324;SDS011;35135;47.510;19.036;2023-07-20T12:14:15;3.75;;;2.17;;
35324;SDS011;35135;47.510;19.036;2023-07-20T12:16:41;3.58;;;2.22;;
35324;SDS011;35135;47.510;19.036;2023-07-20T12:19:11;3.35;;;1.85;;
35324;SDS011;35135;47.510;19.036;2023-07-20T12:21:38;3.55;;;2.17;;
35324;SDS011;35135;47.510;19.036;2023-07-20T12:24:07;3.13;;;2.05;;
35324;SDS011;35135;47.510;19.036;2023-07-20T12:26:37;6.03;;;2.40;;
35324;SDS011;35135;47.510;19.036;2023-07-20T12:29:03;3.13;;;2.40;;
35324;SDS011;35135;47.510;19.036;2023-07-20T12:31:29;3.03;;;2.03;;
35324;SDS011;35135;47.510;19.036;2023-07-20T12:33:56;4.90;;;2.20;;
35324;SDS011;35135;47.510;19.036;2023-07-20T12:36:23;2.92;;;2.00;;
35324;SDS011;35135;47.510;19.036;2023-07-20T12:38:49;2.83;;;1.92;;
35324;SDS011;35135;47.510;19.036;2023-07-20T12:41:15;5.63;;;2.45;;
35324;SDS011;35135;47.510;19.036;2023-07-20T12:43:42;4.00;;;1.90;;
35324;SDS011;35135;47.510;19.036;2023-07-20T12:46:09;3.30;;;1.90;;
35324;SDS011;35135;47.510;19.036;2023-07-20T12:48:37;4.88;;;1.75;;
35324;SDS011;35135;47.510;19.036;2023-07-20T12:51:05;6.40;;;3.08;;
35324;SDS011;35135;47.510;19.036;2023-07-20T12:53:31;3.97;;;2.05;;
35324;SDS011;35135;47.510;19.036;2023-07-20T12:55:57;3.13;;;1.90;;
35324;SDS011;35135;47.510;19.036;2023-07-20T12:58:23;2.30;;;1.70;;
35324;SDS011;35135;47.510;19.036;2023-07-20T13:00:49;4.00;;;2.28;;
35324;SDS011;35135;47.510;19.036;2023-07-20T13:03:15;4.28;;;2.10;;
35324;SDS011;35135;47.510;19.036;2023-07-20T13:05:43;3.45;;;2.13;;
35324;SDS011;35135;47.510;19.036;2023-07-20T13:08:09;7.40;;;2.20;;
35324;SDS011;35135;47.510;19.036;2023-07-20T13:10:35;5.10;;;2.30;;
35324;SDS011;35135;47.510;19.036;2023-07-20T13:13:01;3.90;;;2.17;;
35324;SDS011;35135;47.510;19.036;2023-07-20T13:15:30;3.35;;;1.60;;
35324;SDS011;35135;47.510;19.036;2023-07-20T13:17:57;4.03;;;2.10;;
35324;SDS011;35135;47.510;19.036;2023-07-20T13:20:24;3.25;;;1.88;;
35324;SDS011;35135;47.510;19.036;2023-07-20T13:22:50;4.55;;;1.95;;
35324;SDS011;35135;47.510;19.036;2023-07-20T13:25:16;3.03;;;2.10;;
35324;SDS011;35135;47.510;19.036;2023-07-20T13:27:42;2.67;;;1.58;;
35324;SDS011;35135;47.510;19.036;2023-07-20T13:30:08;3.33;;;2.13;;
35324;SDS011;35135;47.510;19.036;2023-07-20T13:32:38;3.85;;;1.75;;
35324;SDS011;35135;47.510;19.036;2023-07-20T13:35:04;3.33;;;1.88;;
35324;SDS011;35135;47.510;19.036;2023-07-20T13:37:30;3.13;;;2.00;;
35324;SDS011;35135;47.510;19.036;2023-07-20T13:39:56;3.30;;;2.00;;
35324;SDS011;35135;47.510;19.036;2023-07-20T13:42:21;2.17;;;1.63;;
35324;SDS011;35135;47.510;19.036;2023-07-20T13:44:47;2.90;;;1.92;;
35324;SDS011;35135;47.510;19.036;2023-07-20T13:47:13;3.75;;;2.38;;
35324;SDS011;35135;47.510;19.036;2023-07-20T13:49:39;2.75;;;1.83;;
35324;SDS011;35135;47.510;19.036;2023-07-20T13:52:05;3.25;;;1.92;;
35324;SDS011;35135;47.510;19.036;2023-07-20T13:54:31;3.53;;;1.67;;
35324;SDS011;35135;47.510;19.036;2023-07-20T13:56:57;3.42;;;1.70;;
35324;SDS011;35135;47.510;19.036;2023-07-20T13:59:23;2.63;;;1.92;;
35324;SDS011;35135;47.510;19.036;2023-07-20T14:01:48;4.78;;;2.00;;
35324;SDS011;35135;47.510;19.036;2023-07-20T14:04:14;3.03;;;1.58;;
35324;SDS011;35135;47.510;19.036;2023-07-20T14:06:40;2.65;;;1.70;;
35324;SDS011;35135;47.510;19.036;2023-07-20T14:09:06;3.65;;;1.98;;
35324;SDS011;35135;47.510;19.036;2023-07-20T14:11:32;2.72;;;1.60;;
35324;SDS011;35135;47.510;19.036;2023-07-20T14:13:58;2.42;;;1.70;;
35324;SDS011;35135;47.510;19.036;2023-07-20T14:16:23;2.55;;;1.80;;
35324;SDS011;35135;47.510;19.036;2023-07-20T14:18:49;3.65;;;1.77;;
35324;SDS011;35135;47.510;19.036;2023-07-20T14:21:16;2.33;;;1.80;;
35324;SDS011;35135;47.510;19.036;2023-07-20T14:23:46;1.90;;;1.50;;
35324;SDS011;35135;47.510;19.036;2023-07-20T14:26:13;4.43;;;2.00;;
35324;SDS011;35135;47.510;19.036;2023-07-20T14:28:39;4.75;;;1.90;;
35324;SDS011;35135;47.510;19.036;2023-07-20T14:31:05;3.65;;;1.70;;
35324;SDS011;35135;47.510;19.036;2023-07-20T14:33:31;2.53;;;1.83;;
35324;SDS011;35135;47.510;19.036;2023-07-20T14:35:57;2.75;;;1.90;;
35324;SDS011;35135;47.510;19.036;2023-07-20T14:38:22;1.98;;;1.40;;
35324;SDS011;35135;47.510;19.036;2023-07-20T14:40:48;5.55;;;2.30;;
35324;SDS011;35135;47.510;19.036;2023-07-20T14:43:14;8.25;;;2.10;;
35324;SDS011;35135;47.510;19.036;2023-07-20T14:45:43;2.90;;;1.70;;
35324;SDS011;35135;47.510;19.036;2023-07-20T14:48:09;5.75;;;1.63;;
35324;SDS011;35135;47.510;19.036;2023-07-20T14:50:35;7.88;;;2.00;;